Time;durP1;ratioP1;P1;durP2;ratioP2;P2;SDS_P1;SDS_P2;PMS_P1;PMS_P2;Temp;Humidity;BMP_temperature;BMP_pressure;BME280_temperature;BME280_humidity;BME280_pressure;Samples;Min_cycle;Max_cycle;Signal;HPM_P1;HPM_P2
2023/04/13 00:00:48;;;;;;;15.20;14.23;;;;;;;6.48;100.00;99716.06;5053446;28;20423;-50
2023/04/13 00:03:16;;;;;;;16.67;15.30;;;;;;;6.41;100.00;99717.84;5052782;28;20427;-54
2023/04/13 00:05:45;;;;;;;14.53;13.63;;;;;;;6.34;100.00;99714.31;5053166;28;20453;-48
2023/04/13 00:08:15;;;;;;;17.57;16.37;;;;;;;6.26;100.00;99720.59;5052498;28;20489;-50
2023/04/13 00:10:44;;;;;;;16.47;15.13;;;;;;;6.18;100.00;99712.00;5053047;28;20478;-51
2023/04/13 00:13:13;;;;;;;14.80;13.93;;;;;;;6.11;100.00;99719.88;5052402;28;20844;-49
2023/04/13 00:15:42;;;;;;;14.70;13.90;;;;;;;6.03;100.00;99723.47;5015995;28;1065446;-52
2023/04/13 00:18:11;;;;;;;16.00;14.60;;;;;;;5.98;100.00;99723.25;5055045;28;20228;-45
2023/04/13 00:20:40;;;;;;;15.37;14.27;;;;;;;5.92;100.00;99725.81;5054795;28;20991;-49
2023/04/13 00:23:08;;;;;;;14.53;13.43;;;;;;;5.85;100.00;99715.22;5053995;28;20480;-48
2023/04/13 00:25:36;;;;;;;15.83;14.40;;;;;;;5.80;100.00;99711.44;5055408;28;20431;-48
2023/04/13 00:28:05;;;;;;;16.03;14.97;;;;;;;5.77;100.00;99710.00;5055009;28;20558;-47
2023/04/13 00:30:33;;;;;;;16.03;14.93;;;;;;;5.73;100.00;99716.69;5055138;28;20469;-47
2023/04/13 00:33:02;;;;;;;16.57;15.37;;;;;;;5.69;100.00;99712.78;5054504;28;20959;-47
2023/04/13 00:35:30;;;;;;;14.93;13.97;;;;;;;5.65;100.00;99721.28;5054522;28;20446;-51
2023/04/13 00:37:59;;;;;;;17.53;15.90;;;;;;;5.63;100.00;99733.88;5054879;28;20443;-46
2023/04/13 00:40:28;;;;;;;18.40;17.07;;;;;;;5.62;100.00;99730.41;5054965;28;20498;-46
2023/04/13 00:42:56;;;;;;;19.13;17.17;;;;;;;5.65;100.00;99724.75;5053995;28;20492;-49
2023/04/13 00:45:27;;;;;;;20.00;18.40;;;;;;;5.66;100.00;99723.75;5053526;28;20457;-45
2023/04/13 00:47:56;;;;;;;20.10;18.40;;;;;;;5.70;100.00;99732.13;5054140;28;20475;-47
2023/04/13 00:50:25;;;;;;;22.73;20.73;;;;;;;5.69;100.00;99728.66;5054300;28;20431;-49
2023/04/13 00:52:52;;;;;;;25.03;22.83;;;;;;;5.70;100.00;99721.53;5054026;28;20801;-48
2023/04/13 00:55:20;;;;;;;23.43;21.33;;;;;;;5.70;100.00;99718.91;5053271;28;20461;-47
2023/04/13 00:57:51;;;;;;;25.80;23.27;;;;;;;5.67;100.00;99716.63;5053670;28;20447;-50
2023/04/13 01:00:20;;;;;;;25.20;22.10;;;;;;;5.62;100.00;99711.91;5053783;28;20481;-47
2023/04/13 01:02:51;;;;;;;24.10;21.63;;;;;;;5.56;100.00;99710.84;5053973;28;20458;-48
2023/04/13 01:05:19;;;;;;;30.17;23.37;;;;;;;5.52;100.00;99722.00;5040589;28;20987;-48
2023/04/13 01:08:07;;;;;;;25.50;23.00;;;;;;;5.46;100.00;99720.94;5053909;28;20865;-46
2023/04/13 01:10:43;;;;;;;26.33;23.83;;;;;;;5.39;100.00;99722.66;5053716;28;20853;-49
2023/04/13 01:13:18;;;;;;;27.23;24.50;;;;;;;5.35;100.00;99731.97;5054133;28;20504;-47
2023/04/13 01:15:53;;;;;;;27.83;25.13;;;;;;;5.31;100.00;99727.25;5053378;28;20470;-48
2023/04/13 01:18:24;;;;;;;31.10;27.67;;;;;;;5.28;100.00;99728.47;5054084;28;20454;-51
2023/04/13 01:20:53;;;;;;;27.40;24.73;;;;;;;5.25;100.00;99728.84;5053042;28;20455;-48
2023/04/13 01:23:33;;;;;;;30.90;25.83;;;;;;;5.22;100.00;99728.38;5053609;28;20435;-49
2023/04/13 01:26:05;;;;;;;28.87;25.80;;;;;;;5.19;100.00;99723.47;5053114;28;20447;-48
2023/04/13 01:28:37;;;;;;;31.37;26.10;;;;;;;5.16;100.00;99723.84;5053650;28;20558;-51
2023/04/13 01:31:10;;;;;;;27.20;24.20;;;;;;;5.14;100.00;99725.88;5053610;28;20431;-46
2023/04/13 01:33:40;;;;;;;28.47;25.40;;;;;;;5.12;100.00;99730.50;5053129;28;20435;-49
2023/04/13 01:36:10;;;;;;;27.90;24.43;;;;;;;5.07;100.00;99728.44;5052572;28;20471;-46
2023/04/13 01:38:37;;;;;;;29.47;25.03;;;;;;;5.07;100.00;99732.88;5053506;28;20428;-48
2023/04/13 01:41:07;;;;;;;26.27;23.57;;;;;;;5.05;100.00;99737.53;5053522;28;20937;-46
2023/04/13 01:43:37;;;;;;;26.50;23.50;;;;;;;5.04;100.00;99736.72;5053062;28;20503;-47
2023/04/13 01:46:10;;;;;;;27.20;24.63;;;;;;;5.03;100.00;99730.63;5052544;28;21422;-48
2023/04/13 01:48:44;;;;;;;24.20;22.13;;;;;;;5.03;100.00;99733.25;5053654;28;20832;-48
2023/04/13 01:51:18;;;;;;;25.43;23.00;;;;;;;5.03;100.00;99724.50;5053226;28;20474;-51
2023/04/13 01:53:50;;;;;;;25.23;22.93;;;;;;;5.01;100.00;99727.34;5053251;28;20431;-50
2023/04/13 01:56:21;;;;;;;24.90;22.40;;;;;;;4.98;100.00;99725.06;5052553;28;20529;-51
2023/04/13 01:58:55;;;;;;;28.47;25.53;;;;;;;4.95;100.00;99714.88;5053258;28;20860;-51
2023/04/13 02:01:22;;;;;;;25.83;23.23;;;;;;;4.92;100.00;99725.00;5053028;28;20430;-46
2023/04/13 02:03:51;;;;;;;30.50;24.80;;;;;;;4.89;100.00;99720.06;5053145;28;20443;-47
2023/04/13 02:06:19;;;;;;;26.07;23.30;;;;;;;4.88;100.00;99718.44;5052333;28;20528;-46
2023/04/13 02:08:47;;;;;;;27.90;25.13;;;;;;;4.83;100.00;99708.44;5052738;28;20521;-48
2023/04/13 02:11:20;;;;;;;29.10;24.70;;;;;;;4.79;100.00;99717.72;5052674;28;20453;-47
2023/04/13 02:13:48;;;;;;;26.57;24.07;;;;;;;4.76;100.00;99719.91;5053232;28;20435;-50
2023/04/13 02:16:18;;;;;;;34.80;25.50;;;;;;;4.72;100.00;99719.44;5051918;28;20491;-48
2023/04/13 02:18:46;;;;;;;27.87;25.17;;;;;;;4.69;100.00;99719.00;5052774;28;20423;-47
2023/04/13 02:21:15;;;;;;;28.23;25.47;;;;;;;4.65;100.00;99721.19;5052854;28;20439;-51
2023/04/13 02:23:43;;;;;;;27.23;24.50;;;;;;;4.61;100.00;99717.28;5052424;28;20513;-49
2023/04/13 02:26:13;;;;;;;30.03;27.00;;;;;;;4.56;100.00;99724.09;5052097;28;20482;-45
2023/04/13 02:28:40;;;;;;;31.80;26.33;;;;;;;4.51;100.00;99711.44;5052677;28;20474;-48
2023/04/13 02:31:08;;;;;;;28.90;25.80;;;;;;;4.45;100.00;99717.44;5052334;28;20482;-51
2023/04/13 02:33:37;;;;;;;29.70;26.47;;;;;;;4.39;100.00;99713.72;5052045;28;20431;-50
2023/04/13 02:36:06;;;;;;;30.57;26.40;;;;;;;4.35;100.00;99722.19;5050839;28;20478;-48
2023/04/13 02:38:36;;;;;;;31.63;28.00;;;;;;;4.32;100.00;99717.28;5052765;28;20793;-47
2023/04/13 02:41:04;;;;;;;28.53;25.60;;;;;;;4.25;100.00;99709.25;5052541;28;20434;-53
2023/04/13 02:43:32;;;;;;;30.17;27.07;;;;;;;4.21;100.00;99701.91;5052046;28;20431;-48
2023/04/13 02:45:59;;;;;;;30.40;24.40;;;;;;;4.17;100.00;99713.81;5052044;28;20462;-48
2023/04/13 02:48:27;;;;;;;32.67;26.33;;;;;;;4.12;100.00;99705.63;5052326;28;20548;-50
2023/04/13 02:50:56;;;;;;;33.40;26.97;;;;;;;4.09;100.00;99706.78;5052198;28;20542;-48
2023/04/13 02:53:24;;;;;;;34.00;27.40;;;;;;;4.06;100.00;99709.78;5051937;28;20442;-50
2023/04/13 02:55:53;;;;;;;29.47;26.33;;;;;;;4.04;100.00;99714.41;5051664;28;20939;-47
2023/04/13 02:58:22;;;;;;;29.90;26.60;;;;;;;4.01;100.00;99704.22;5052303;28;20941;-48
2023/04/13 03:00:50;;;;;;;31.00;27.50;;;;;;;3.99;100.00;99703.59;5052105;28;20800;-48
2023/04/13 03:03:19;;;;;;;29.83;26.70;;;;;;;3.97;100.00;99708.25;5052064;28;20514;-46
2023/04/13 03:05:49;;;;;;;41.60;27.40;;;;;;;3.97;100.00;99702.13;5047862;28;20895;-48
2023/04/13 03:08:18;;;;;;;38.07;32.43;;;;;;;3.95;100.00;99706.75;5052193;28;20833;-48
2023/04/13 03:10:46;;;;;;;28.70;25.50;;;;;;;3.93;100.00;99712.22;5052111;28;20437;-50
2023/04/13 03:13:13;;;;;;;32.53;28.70;;;;;;;3.90;100.00;99720.50;5051657;28;20940;-47
2023/04/13 03:15:41;;;;;;;30.57;26.90;;;;;;;3.87;100.00;99720.84;5051267;28;20465;-47
2023/04/13 03:18:09;;;;;;;41.57;29.50;;;;;;;3.85;100.00;99721.00;5052101;28;20810;-47
2023/04/13 03:20:36;;;;;;;32.57;28.20;;;;;;;3.85;100.00;99720.22;5051915;28;20435;-49
2023/04/13 03:23:04;;;;;;;34.33;29.50;;;;;;;3.81;100.00;99718.91;5052089;28;20435;-48
2023/04/13 03:25:33;;;;;;;41.37;31.23;;;;;;;3.81;100.00;99721.56;5051515;28;20542;-45
2023/04/13 03:28:01;;;;;;;36.77;32.83;;;;;;;3.79;100.00;99718.28;5051573;28;20475;-48
2023/04/13 03:30:29;;;;;;;41.07;31.40;;;;;;;3.78;100.00;99722.75;5051835;28;20431;-49
2023/04/13 03:32:56;;;;;;;35.40;31.50;;;;;;;3.77;100.00;99707.91;5051479;28;20438;-49
2023/04/13 03:35:24;;;;;;;39.63;30.80;;;;;;;3.76;100.00;99716.00;5050977;28;21022;-48
2023/04/13 03:37:52;;;;;;;40.40;32.70;;;;;;;3.74;100.00;99724.06;5051465;28;20542;-50
2023/04/13 03:40:20;;;;;;;39.93;33.03;;;;;;;3.72;100.00;99731.34;5051878;28;20435;-46
2023/04/13 03:42:49;;;;;;;42.53;30.47;;;;;;;3.70;100.00;99727.25;5052257;28;20435;-45
2023/04/13 03:45:18;;;;;;;39.50;32.90;;;;;;;3.69;100.00;99733.53;5054900;28;20837;-46
2023/04/13 03:47:45;;;;;;;38.50;32.63;;;;;;;3.66;100.00;99733.88;5055254;28;20455;-47
2023/04/13 03:50:13;;;;;;;40.90;31.60;;;;;;;3.66;100.00;99732.06;5055295;28;20431;-47
2023/04/13 03:52:42;;;;;;;38.23;32.40;;;;;;;3.68;100.00;99731.88;5054938;28;20522;-45
2023/04/13 03:55:09;;;;;;;39.80;32.33;;;;;;;3.69;100.00;99720.34;5054545;28;20521;-47
2023/04/13 03:57:37;;;;;;;35.67;31.17;;;;;;;3.69;100.00;99729.06;5055187;28;20466;-48
2023/04/13 04:00:12;;;;;;;37.03;30.77;;;;;;;3.69;100.00;99729.06;5054903;28;20427;-46
2023/04/13 04:02:40;;;;;;;37.63;32.13;;;;;;;3.69;100.00;99728.25;5054658;28;20423;-52
2023/04/13 04:05:09;;;;;;;36.37;32.47;;;;;;;3.69;100.00;99734.34;5054396;28;20550;-46
2023/04/13 04:07:37;;;;;;;38.60;32.43;;;;;;;3.71;100.00;99726.25;5054920;28;20451;-46
2023/04/13 04:10:05;;;;;;;38.80;31.93;;;;;;;3.72;100.00;99719.97;5054899;28;20474;-47
2023/04/13 04:12:33;;;;;;;33.90;30.27;;;;;;;3.70;100.00;99725.41;5054711;28;20480;-48
2023/04/13 04:15:00;;;;;;;36.67;32.97;;;;;;;3.70;100.00;99714.88;5054180;28;20463;-45
2023/04/13 04:17:29;;;;;;;43.17;31.33;;;;;;;3.75;100.00;99715.19;5054225;28;20462;-47
2023/04/13 04:19:57;;;;;;;33.20;29.63;;;;;;;3.75;100.00;99712.53;5054029;28;20526;-48
2023/04/13 04:22:28;;;;;;;41.77;31.97;;;;;;;3.77;100.00;99713.19;5053762;28;20431;-49
2023/04/13 04:24:58;;;;;;;34.73;29.67;;;;;;;3.78;100.00;99716.63;5053578;28;20470;-48
2023/04/13 04:27:26;;;;;;;36.60;29.40;;;;;;;3.78;100.00;99717.47;5054279;28;20463;-51
2023/04/13 04:29:58;;;;;;;36.17;30.97;;;;;;;3.78;100.00;99714.81;5054003;28;20470;-49
2023/04/13 04:32:25;;;;;;;36.30;30.80;;;;;;;3.80;100.00;99718.09;5053826;28;20825;-48
2023/04/13 04:34:55;;;;;;;36.77;29.33;;;;;;;3.83;100.00;99724.81;5053701;28;20467;-48
2023/04/13 04:37:24;;;;;;;32.40;27.30;;;;;;;3.82;100.00;99724.00;5053785;28;20534;-48
2023/04/13 04:39:53;;;;;;;35.20;29.07;;;;;;;3.89;100.00;99732.03;5053881;28;20952;-49
2023/04/13 04:42:20;;;;;;;30.80;27.67;;;;;;;3.91;100.00;99725.56;5054012;28;20457;-46
2023/04/13 04:44:48;;;;;;;33.00;29.60;;;;;;;4.04;100.00;99727.59;5053517;28;20832;-52
2023/04/13 04:47:18;;;;;;;33.97;30.73;;;;;;;4.19;100.00;99717.91;5053868;28;20454;-49
2023/04/13 04:49:46;;;;;;;37.10;31.17;;;;;;;4.36;100.00;99718.56;5053871;28;20474;-45
2023/04/13 04:52:15;;;;;;;31.33;28.40;;;;;;;4.68;100.00;99710.25;5053628;28;20435;-46
2023/04/13 04:54:42;;;;;;;31.27;28.07;;;;;;;5.08;100.00;99724.75;5051700;28;20486;-49
2023/04/13 04:57:11;;;;;;;32.70;29.70;;;;;;;5.45;100.00;99737.78;5053304;28;21015;-46
2023/04/13 04:59:39;;;;;;;30.00;27.80;;;;;;;5.69;100.00;99739.25;5053157;28;21051;-46
2023/04/13 05:02:07;;;;;;;30.07;27.80;;;;;;;6.05;100.00;99740.00;5053278;28;20749;-46
2023/04/13 05:04:35;;;;;;;30.20;27.07;;;;;;;6.68;100.00;99741.66;5049565;28;20463;-50
2023/04/13 05:07:03;;;;;;;29.57;27.27;;;;;;;7.23;100.00;99731.88;5053274;28;20473;-53
2023/04/13 05:09:32;;;;;;;28.90;26.77;;;;;;;7.62;100.00;99736.44;5053055;28;20475;-50
2023/04/13 05:11:59;;;;;;;28.70;26.60;;;;;;;7.48;100.00;99738.28;5052829;28;20431;-48
2023/04/13 05:14:27;;;;;;;27.17;25.27;;;;;;;7.77;100.00;99739.75;5052427;28;20797;-50
2023/04/13 05:16:55;;;;;;;26.97;25.03;;;;;;;7.83;100.00;99720.34;5052910;28;20466;-47
2023/04/13 05:19:22;;;;;;;27.40;25.60;;;;;;;7.53;100.00;99719.91;5053107;28;20419;-48
2023/04/13 05:21:50;;;;;;;28.43;26.30;;;;;;;7.32;100.00;99725.38;5052744;28;20424;-47
2023/04/13 05:24:17;;;;;;;27.50;25.60;;;;;;;7.12;100.00;99722.66;5052394;28;20832;-51
2023/04/13 05:26:47;;;;;;;27.73;25.70;;;;;;;7.02;100.00;99721.38;5052649;28;20451;-45
2023/04/13 05:29:14;;;;;;;28.00;25.83;;;;;;;7.11;100.00;99720.19;5052630;28;20981;-46
2023/04/13 05:31:42;;;;;;;27.93;26.13;;;;;;;7.71;100.00;99727.28;5052601;28;20439;-46
2023/04/13 05:34:10;;;;;;;25.90;24.10;;;;;;;8.55;100.00;99728.28;5052270;28;20485;-46
2023/04/13 05:36:38;;;;;;;28.93;26.63;;;;;;;8.98;100.00;99719.78;5052652;28;20455;-52
2023/04/13 05:39:07;;;;;;;27.23;25.43;;;;;;;9.17;100.00;99719.69;5052697;28;20493;-50
2023/04/13 05:41:34;;;;;;;28.63;26.67;;;;;;;9.17;100.00;99719.69;5052248;28;20442;-45
2023/04/13 05:44:03;;;;;;;28.63;26.60;;;;;;;9.42;100.00;99717.09;5052742;28;20485;-50
2023/04/13 05:46:31;;;;;;;27.87;25.80;;;;;;;9.49;100.00;99707.25;5052182;28;20549;-51
2023/04/13 05:49:00;;;;;;;27.70;25.60;;;;;;;9.71;100.00;99713.00;5052487;28;20436;-51
2023/04/13 05:51:30;;;;;;;28.63;26.73;;;;;;;10.65;100.00;99721.63;5052120;28;20435;-48
2023/04/13 05:53:58;;;;;;;28.30;26.27;;;;;;;11.08;100.00;99717.00;5052237;28;20442;-50
2023/04/13 05:56:28;;;;;;;29.50;27.60;;;;;;;11.27;100.00;99707.13;5051666;28;21019;-52
2023/04/13 05:58:56;;;;;;;28.20;26.10;;;;;;;11.52;100.00;99712.34;5052298;28;20439;-46
2023/04/13 06:01:27;;;;;;;27.87;26.07;;;;;;;12.09;100.00;99710.88;5052094;28;20439;-47
2023/04/13 06:03:55;;;;;;;24.77;22.77;;;;;;;12.53;100.00;99710.28;5052161;28;20428;-47
2023/04/13 06:06:23;;;;;;;24.50;22.80;;;;;;;13.07;100.00;99708.19;5049323;28;20478;-47
2023/04/13 06:08:52;;;;;;;22.50;21.17;;;;;;;13.54;100.00;99716.88;5052288;28;20829;-50
2023/04/13 06:11:20;;;;;;;22.60;21.10;;;;;;;13.46;100.00;99701.19;5052006;28;20532;-51
2023/04/13 06:13:48;;;;;;;23.17;21.47;;;;;;;13.79;100.00;99707.44;5052098;28;20530;-46
2023/04/13 06:16:16;;;;;;;21.73;20.10;;;;;;;14.01;100.00;99709.41;5051188;28;20992;-50
2023/04/13 06:18:45;;;;;;;21.97;20.37;;;;;;;14.49;98.89;99709.59;5051936;28;20458;-46
2023/04/13 06:21:14;;;;;;;21.57;19.97;;;;;;;14.96;98.74;99715.34;5051656;28;20805;-47
2023/04/13 06:23:42;;;;;;;21.63;20.07;;;;;;;14.83;89.46;99724.56;5051929;28;20941;-47
2023/04/13 06:26:10;;;;;;;19.80;18.50;;;;;;;14.14;88.21;99717.91;5051326;28;20471;-46
2023/04/13 06:28:38;;;;;;;18.37;17.07;;;;;;;13.33;91.87;99723.72;5051659;28;20948;-45
2023/04/13 06:31:07;;;;;;;19.00;17.53;;;;;;;12.73;98.00;99721.41;5051517;28;20470;-44
2023/04/13 06:33:35;;;;;;;20.87;19.27;;;;;;;12.10;100.00;99728.50;5051352;28;20485;-45
2023/04/13 06:36:06;;;;;;;19.40;17.90;;;;;;;11.90;100.00;99728.00;5040542;28;21014;-47
2023/04/13 06:38:34;;;;;;;18.40;17.20;;;;;;;11.90;100.00;99731.50;5051767;28;20438;-44
2023/04/13 06:41:02;;;;;;;19.43;18.00;;;;;;;12.07;100.00;99715.59;5051435;28;20916;-46
2023/04/13 06:43:30;;;;;;;18.03;16.83;;;;;;;12.94;100.00;99721.81;5051404;28;20531;-46
2023/04/13 06:45:59;;;;;;;17.30;16.20;;;;;;;12.89;100.00;99727.09;5050905;28;20843;-46
2023/04/13 06:48:27;;;;;;;16.83;15.67;;;;;;;12.98;100.00;99731.03;5051868;28;20442;-46
2023/04/13 06:50:55;;;;;;;16.27;15.10;;;;;;;13.16;100.00;99728.22;5051590;28;20521;-44
2023/04/13 06:53:24;;;;;;;17.63;16.17;;;;;;;13.51;100.00;99720.03;5051400;28;20427;-48
2023/04/13 06:55:52;;;;;;;15.10;14.07;;;;;;;13.70;99.46;99724.13;5050961;28;20451;-46
2023/04/13 06:58:22;;;;;;;15.13;14.23;;;;;;;14.18;99.90;99727.09;5051382;28;20431;-46
2023/04/13 07:00:49;;;;;;;18.27;16.70;;;;;;;13.77;93.27;99722.09;5051298;28;20533;-47
2023/04/13 07:03:17;;;;;;;15.50;14.23;;;;;;;13.50;98.68;99723.78;5052172;28;20478;-48
2023/04/13 07:05:45;;;;;;;15.30;13.83;;;;;;;13.52;100.00;99725.16;5051982;28;20538;-45
2023/04/13 07:08:13;;;;;;;14.37;13.33;;;;;;;13.41;97.97;99727.91;5052164;28;20775;-47
2023/04/13 07:10:42;;;;;;;15.03;13.80;;;;;;;13.17;99.40;99729.84;5052041;28;20840;-44
2023/04/13 07:13:10;;;;;;;15.70;14.60;;;;;;;13.04;100.00;99728.22;5051613;28;20504;-47
2023/04/13 07:15:37;;;;;;;15.70;14.60;;;;;;;13.52;100.00;99732.38;5051713;28;20466;-46
2023/04/13 07:18:05;;;;;;;15.97;14.63;;;;;;;13.69;100.00;99727.88;5053623;28;20479;-47
2023/04/13 07:20:33;;;;;;;15.23;14.03;;;;;;;13.54;100.00;99731.09;5055851;28;20433;-46
2023/04/13 07:23:01;;;;;;;16.20;14.60;;;;;;;13.37;100.00;99729.41;5055437;28;20454;-47
2023/04/13 07:25:29;;;;;;;15.33;14.20;;;;;;;12.93;100.00;99736.28;5055240;28;20480;-48
2023/04/13 07:27:58;;;;;;;16.10;15.10;;;;;;;12.49;100.00;99743.06;5055570;28;20454;-48
2023/04/13 07:30:25;;;;;;;14.47;13.47;;;;;;;11.95;100.00;99746.84;5055716;28;20540;-45
2023/04/13 07:32:53;;;;;;;13.83;13.00;;;;;;;11.73;100.00;99748.41;5055710;28;20439;-51
2023/04/13 07:35:21;;;;;;;13.60;12.77;;;;;;;11.14;100.00;99749.19;5050390;28;20435;-47
2023/04/13 07:37:49;;;;;;;14.60;13.40;;;;;;;10.51;100.00;99749.47;5055621;28;20455;-48
2023/04/13 07:40:20;;;;;;;13.80;13.00;;;;;;;10.44;100.00;99752.19;5055739;28;20431;-47
2023/04/13 07:42:50;;;;;;;13.70;12.90;;;;;;;10.43;100.00;99744.41;5055178;28;20438;-50
2023/04/13 07:45:20;;;;;;;13.77;12.63;;;;;;;10.15;100.00;99752.06;5056035;28;20438;-49
2023/04/13 07:47:47;;;;;;;13.40;12.53;;;;;;;10.00;100.00;99753.16;5049149;28;20868;-51
2023/04/13 07:50:16;;;;;;;13.57;12.57;;;;;;;9.85;100.00;99755.34;5055405;28;20797;-45
2023/04/13 07:52:44;;;;;;;12.37;11.87;;;;;;;9.78;100.00;99759.88;5055159;28;20900;-51
2023/04/13 07:55:12;;;;;;;12.83;11.90;;;;;;;9.62;100.00;99762.22;5056269;28;20438;-51
2023/04/13 07:57:40;;;;;;;13.47;12.67;;;;;;;9.54;100.00;99763.28;5055395;28;20477;-49
2023/04/13 08:00:09;;;;;;;13.33;12.53;;;;;;;9.62;100.00;99765.69;5055961;28;20778;-53
2023/04/13 08:02:38;;;;;;;13.03;12.10;;;;;;;9.63;100.00;99764.69;5055639;28;20442;-47
2023/04/13 08:05:07;;;;;;;12.53;11.93;;;;;;;9.61;100.00;99757.94;5055486;28;20467;-44
2023/04/13 08:07:35;;;;;;;13.40;12.63;;;;;;;9.60;100.00;99766.94;5054749;28;20475;-49
2023/04/13 08:10:03;;;;;;;13.83;12.63;;;;;;;9.52;100.00;99772.53;5055049;28;20431;-47
2023/04/13 08:12:30;;;;;;;12.70;12.20;;;;;;;9.45;100.00;99769.91;5055051;28;20471;-47
2023/04/13 08:14:58;;;;;;;13.27;12.33;;;;;;;9.32;100.00;99770.78;5055138;28;20434;-50
2023/04/13 08:17:26;;;;;;;12.80;12.00;;;;;;;9.23;100.00;99777.34;5052554;28;20463;-48
2023/04/13 08:19:55;;;;;;;12.77;12.13;;;;;;;9.28;100.00;99774.91;5054913;28;20439;-49
2023/04/13 08:22:23;;;;;;;13.77;12.73;;;;;;;9.22;100.00;99782.91;5055151;28;20442;-50
2023/04/13 08:24:51;;;;;;;12.87;12.10;;;;;;;9.16;100.00;99791.72;5055199;28;20434;-42
2023/04/13 08:27:19;;;;;;;13.87;13.07;;;;;;;9.20;100.00;99780.44;5054289;28;20475;-45
2023/04/13 08:29:46;;;;;;;12.50;11.80;;;;;;;9.23;100.00;99793.31;5054548;28;20437;-45
2023/04/13 08:32:14;;;;;;;13.40;12.40;;;;;;;9.17;100.00;99793.38;5054362;28;20482;-51
2023/04/13 08:34:42;;;;;;;12.30;11.23;;;;;;;9.13;100.00;99798.28;5055004;28;20431;-49
2023/04/13 08:37:14;;;;;;;13.80;12.90;;;;;;;9.12;100.00;99804.63;5053787;28;20900;-45
2023/04/13 08:39:41;;;;;;;14.17;12.87;;;;;;;9.11;100.00;99808.28;5053946;28;20449;-47
2023/04/13 08:42:10;;;;;;;13.30;12.60;;;;;;;9.02;100.00;99820.19;5054411;28;20428;-45
2023/04/13 08:44:38;;;;;;;11.80;11.10;;;;;;;9.00;100.00;99824.09;5054714;28;20438;-53
2023/04/13 08:47:06;;;;;;;12.43;11.73;;;;;;;8.94;100.00;99831.06;5053715;28;20526;-52
2023/04/13 08:49:36;;;;;;;13.57;12.77;;;;;;;8.83;100.00;99826.38;5054967;28;20427;-45
2023/04/13 08:52:07;;;;;;;11.93;11.43;;;;;;;8.76;100.00;99833.53;5053948;28;20542;-47
2023/04/13 08:54:37;;;;;;;12.73;12.00;;;;;;;8.74;100.00;99847.06;5054168;28;20426;-46
2023/04/13 08:57:05;;;;;;;11.97;11.37;;;;;;;8.74;100.00;99836.41;5053506;28;20473;-44
2023/04/13 08:59:36;;;;;;;11.80;11.20;;;;;;;8.87;100.00;99844.34;5053886;28;20948;-48
2023/04/13 09:02:06;;;;;;;11.30;10.80;;;;;;;9.01;100.00;99839.84;5053568;28;20457;-47
2023/04/13 09:04:37;;;;;;;14.33;13.23;;;;;;;9.06;100.00;99845.34;5053876;28;20431;-48
2023/04/13 09:07:07;;;;;;;14.30;13.30;;;;;;;9.05;100.00;99849.03;5053210;28;20467;-46
2023/04/13 09:09:42;;;;;;;14.20;13.20;;;;;;;9.14;100.00;99853.09;5053296;28;20442;-47
2023/04/13 09:12:10;;;;;;;12.43;11.77;;;;;;;9.29;100.00;99855.50;5053124;28;20828;-48
2023/04/13 09:14:38;;;;;;;11.50;10.90;;;;;;;9.31;100.00;99856.97;5053443;28;20844;-51
2023/04/13 09:17:06;;;;;;;12.67;12.03;;;;;;;9.23;100.00;99851.03;5050147;28;20892;-47
2023/04/13 09:19:34;;;;;;;12.37;11.43;;;;;;;9.16;100.00;99866.19;5052921;28;20467;-50
2023/04/13 09:22:12;;;;;;;12.47;11.70;;;;;;;9.10;100.00;99869.69;5053299;28;20466;-47
2023/04/13 09:24:42;;;;;;;12.67;11.70;;;;;;;9.07;100.00;99867.44;5053205;28;20440;-49
2023/04/13 09:27:17;;;;;;;12.17;11.40;;;;;;;9.15;100.00;99876.03;5052443;28;20471;-47
2023/04/13 09:29:50;;;;;;;11.40;10.90;;;;;;;9.18;100.00;99880.91;5052895;28;21091;-48
2023/04/13 09:32:21;;;;;;;12.90;12.27;;;;;;;9.15;100.00;99880.50;5052400;28;20479;-50
2023/04/13 09:35:01;;;;;;;13.33;12.43;;;;;;;9.09;100.00;99876.03;5052566;28;20434;-48
2023/04/13 09:37:31;;;;;;;12.40;11.67;;;;;;;9.09;100.00;99871.53;5045329;28;20473;-46
2023/04/13 09:40:10;;;;;;;12.53;11.83;;;;;;;9.12;100.00;99881.75;5052148;28;20424;-46
2023/04/13 09:42:39;;;;;;;12.10;11.30;;;;;;;9.19;100.00;99890.56;5052361;28;20435;-52
2023/04/13 09:45:07;;;;;;;12.10;11.40;;;;;;;9.41;100.00;99897.22;5052387;28;20446;-52
2023/04/13 09:47:37;;;;;;;12.40;11.70;;;;;;;9.53;100.00;99900.06;5043609;28;20470;-46
2023/04/13 09:50:16;;;;;;;12.83;12.13;;;;;;;9.60;100.00;99908.03;5052528;28;20526;-48
2023/04/13 09:52:45;;;;;;;13.43;12.57;;;;;;;9.70;100.00;99906.56;5052446;28;20463;-46
2023/04/13 09:55:17;;;;;;;13.50;12.80;;;;;;;9.74;100.00;99917.59;5052505;28;20478;-47
2023/04/13 09:57:45;;;;;;;13.50;12.80;;;;;;;9.83;100.00;99925.13;5051911;28;20479;-46
2023/04/13 10:00:19;;;;;;;14.20;13.20;;;;;;;10.03;100.00;99922.38;5052475;28;20510;-47
2023/04/13 10:02:48;;;;;;;14.03;13.17;;;;;;;10.25;100.00;99925.56;5052354;28;20437;-46
2023/04/13 10:05:16;;;;;;;14.20;13.50;;;;;;;10.41;100.00;99927.72;5053188;28;20518;-53
2023/04/13 10:07:45;;;;;;;13.60;13.10;;;;;;;10.84;100.00;99927.84;5045664;28;21095;-54
2023/04/13 10:10:13;;;;;;;15.50;14.47;;;;;;;11.33;100.00;99924.28;5052875;28;20431;-52
2023/04/13 10:12:46;;;;;;;14.57;13.77;;;;;;;11.52;100.00;99932.09;5052676;28;20524;-48
2023/04/13 10:15:31;;;;;;;13.90;13.20;;;;;;;11.88;100.00;99936.66;5053317;28;20433;-50
2023/04/13 10:18:07;;;;;;;14.20;13.40;;;;;;;12.06;100.00;99941.16;5053342;28;20904;-46
2023/04/13 10:20:36;;;;;;;13.10;12.50;;;;;;;12.52;100.00;99940.47;5042318;28;21030;-48
2023/04/13 10:23:05;;;;;;;13.27;12.67;;;;;;;12.65;100.00;99925.06;5052881;28;20431;-45
2023/04/13 10:25:35;;;;;;;13.60;12.90;;;;;;;12.73;100.00;99937.28;5052979;28;20627;-46
2023/04/13 10:28:07;;;;;;;13.97;13.27;;;;;;;12.48;100.00;99939.31;5052650;28;20451;-45
2023/04/13 10:30:34;;;;;;;14.30;13.60;;;;;;;13.25;100.00;99941.78;5053018;28;20439;-53
2023/04/13 10:33:04;;;;;;;14.67;13.87;;;;;;;13.49;100.00;99942.59;5052415;28;20840;-44
2023/04/13 10:35:35;;;;;;;14.10;13.50;;;;;;;13.48;100.00;99946.31;5052395;28;20467;-47
2023/04/13 10:38:03;;;;;;;13.43;12.73;;;;;;;13.16;100.00;99955.75;5052190;28;20816;-50
2023/04/13 10:40:42;;;;;;;13.83;13.13;;;;;;;13.48;100.00;99943.63;5052935;28;20438;-46
2023/04/13 10:43:11;;;;;;;13.57;12.87;;;;;;;13.69;100.00;99945.69;5052430;28;20422;-46
2023/04/13 10:45:39;;;;;;;14.17;13.17;;;;;;;13.37;100.00;99949.81;5052395;28;20790;-46
2023/04/13 10:48:06;;;;;;;12.70;12.10;;;;;;;13.52;100.00;99960.06;5052120;28;20972;-45
2023/04/13 10:50:34;;;;;;;13.50;12.97;;;;;;;13.38;100.00;99951.44;5052662;28;20522;-45
2023/04/13 10:53:03;;;;;;;12.13;11.63;;;;;;;13.27;100.00;99966.47;5055447;28;20481;-44
2023/04/13 10:55:32;;;;;;;12.17;11.57;;;;;;;13.12;100.00;99965.28;5056587;28;20430;-45
2023/04/13 10:58:01;;;;;;;11.97;11.47;;;;;;;13.38;100.00;99961.34;5056425;28;20451;-49
2023/04/13 11:00:31;;;;;;;12.60;11.77;;;;;;;13.53;100.00;99959.03;5056471;28;20467;-44
2023/04/13 11:03:14;;;;;;;10.87;10.47;;;;;;;13.64;100.00;99968.91;5056446;28;20510;-46
2023/04/13 11:05:43;;;;;;;11.33;10.83;;;;;;;13.39;100.00;99969.13;5056895;28;20502;-45
2023/04/13 11:08:17;;;;;;;10.77;10.37;;;;;;;13.30;100.00;99976.72;5055935;28;20447;-47
2023/04/13 11:10:50;;;;;;;11.47;10.80;;;;;;;13.71;100.00;99975.75;5056545;28;20427;-53
2023/04/13 11:13:18;;;;;;;11.23;10.50;;;;;;;13.96;100.00;99974.66;5056129;28;20526;-45
2023/04/13 11:15:48;;;;;;;11.63;11.03;;;;;;;13.91;100.00;99978.06;5056221;28;20443;-45
2023/04/13 11:18:24;;;;;;;11.47;10.80;;;;;;;13.67;100.00;99979.16;5055934;28;20438;-44
2023/04/13 11:20:52;;;;;;;11.80;11.30;;;;;;;13.45;100.00;99978.91;5056695;28;20805;-50
2023/04/13 11:23:22;;;;;;;12.77;12.00;;;;;;;13.72;100.00;99982.75;5056243;28;20423;-50